Time;durP1;ratioP1;P1;durP2;ratioP2;P2;SDS_P1;SDS_P2;PMS_P1;PMS_P2;Temp;Humidity;BMP_temperature;BMP_pressure;BME280_temperature;BME280_humidity;BME280_pressure;Samples;Min_cycle;Max_cycle;Signal;HPM_P1;HPM_P2
2023/10/25 00:02:04;;;;;;;2.10;1.90;;;19.70;57.90;;;;;;5036363;28;20282;-57
2023/10/25 00:04:31;;;;;;;1.88;1.70;;;19.70;57.90;;;;;;5036600;28;20298;-57
2023/10/25 00:06:58;;;;;;;2.25;2.00;;;19.70;57.80;;;;;;5036310;28;20200;-57
2023/10/25 00:09:25;;;;;;;2.85;1.95;;;19.70;57.90;;;;;;5053975;28;20698;-57
2023/10/25 00:11:54;;;;;;;2.30;1.75;;;19.70;57.90;;;;;;5036270;28;20569;-58
2023/10/25 00:14:21;;;;;;;2.05;1.70;;;19.70;57.90;;;;;;5054000;28;20725;-57
2023/10/25 00:16:48;;;;;;;3.17;1.98;;;19.70;57.90;;;;;;5054241;28;20603;-57
2023/10/25 00:19:15;;;;;;;1.95;1.70;;;19.60;57.90;;;;;;5035765;28;20593;-57
2023/10/25 00:21:42;;;;;;;1.70;1.60;;;19.60;57.90;;;;;;5036041;28;20203;-58
2023/10/25 00:24:09;;;;;;;3.45;1.98;;;19.60;57.90;;;;;;5053821;28;20195;-57
2023/10/25 00:26:36;;;;;;;2.35;1.88;;;19.60;57.90;;;;;;5053751;28;20195;-57
2023/10/25 00:29:05;;;;;;;2.00;1.77;;;19.60;57.90;;;;;;5035142;28;20215;-57
2023/10/25 00:31:32;;;;;;;3.40;1.80;;;19.60;57.90;;;;;;5035816;28;20199;-58
2023/10/25 00:33:59;;;;;;;3.13;1.90;;;19.50;57.90;;;;;;5035793;28;20223;-57
2023/10/25 00:36:29;;;;;;;2.33;1.90;;;19.50;57.90;;;;;;5035670;28;20209;-57
2023/10/25 00:38:56;;;;;;;1.95;1.73;;;19.60;58.10;;;;;;5035514;28;20219;-57
2023/10/25 00:41:24;;;;;;;2.40;1.48;;;19.50;58.00;;;;;;5035474;28;20564;-57
2023/10/25 00:43:51;;;;;;;3.33;2.00;;;19.50;58.00;;;;;;5035531;28;20314;-57
2023/10/25 00:46:22;;;;;;;1.92;1.83;;;19.50;58.00;;;;;;5053370;28;20195;-57
2023/10/25 00:48:50;;;;;;;1.98;1.77;;;19.50;58.00;;;;;;5035731;28;20218;-58
2023/10/25 00:51:19;;;;;;;2.38;1.80;;;19.50;58.10;;;;;;5053309;28;20187;-57
2023/10/25 00:53:48;;;;;;;1.70;1.60;;;19.50;58.10;;;;;;5035446;28;20195;-57
2023/10/25 00:56:16;;;;;;;2.10;1.90;;;19.40;58.10;;;;;;5035348;28;20290;-58
2023/10/25 00:58:45;;;;;;;3.05;1.60;;;19.40;58.10;;;;;;5035219;28;20215;-57
2023/10/25 01:01:12;;;;;;;1.73;1.63;;;19.40;58.10;;;;;;5035563;28;20203;-57
2023/10/25 01:03:41;;;;;;;2.00;1.80;;;19.40;58.10;;;;;;5053193;28;20664;-58
2023/10/25 01:06:08;;;;;;;1.73;1.60;;;19.40;58.10;;;;;;5035491;28;20260;-57
2023/10/25 01:08:35;;;;;;;2.28;1.52;;;19.40;58.10;;;;;;5053068;28;20207;-58
2023/10/25 01:11:03;;;;;;;1.88;1.70;;;19.40;58.10;;;;;;5035219;28;20250;-57
2023/10/25 01:13:30;;;;;;;1.88;1.73;;;19.40;58.10;;;;;;5053299;28;20191;-57
2023/10/25 01:15:57;;;;;;;1.90;1.70;;;19.40;58.20;;;;;;5035264;28;20599;-57
2023/10/25 01:18:24;;;;;;;2.20;1.80;;;19.40;58.20;;;;;;5035363;28;20706;-57
2023/10/25 01:20:53;;;;;;;2.65;1.85;;;19.40;58.30;;;;;;5035252;28;20305;-58
2023/10/25 01:23:21;;;;;;;1.90;1.70;;;19.30;58.20;;;;;;5034964;28;20556;-57
2023/10/25 01:25:48;;;;;;;1.92;1.63;;;19.30;58.20;;;;;;5035060;28;20191;-58
2023/10/25 01:28:15;;;;;;;2.50;1.73;;;19.30;58.30;;;;;;5052874;28;20203;-57
2023/10/25 01:30:43;;;;;;;2.10;1.90;;;19.30;58.80;;;;;;5034894;28;20195;-57
2023/10/25 01:33:10;;;;;;;1.60;1.50;;;19.30;58.30;;;;;;5052911;28;20620;-57
2023/10/25 01:35:37;;;;;;;1.95;1.75;;;19.30;58.30;;;;;;5052906;28;20187;-57
2023/10/25 01:38:05;;;;;;;1.67;1.58;;;19.20;58.20;;;;;;5034728;28;20203;-58
2023/10/25 01:40:32;;;;;;;1.60;1.50;;;19.30;58.30;;;;;;5038665;28;20274;-57
2023/10/25 01:42:59;;;;;;;1.67;1.58;;;19.20;58.20;;;;;;5057102;28;20253;-57
2023/10/25 01:45:28;;;;;;;2.50;1.70;;;19.20;58.20;;;;;;5038815;28;20191;-57
2023/10/25 01:47:55;;;;;;;4.85;1.80;;;19.20;58.20;;;;;;5039227;28;20634;-57
2023/10/25 01:50:22;;;;;;;1.73;1.60;;;19.20;58.20;;;;;;5038757;28;20191;-57
2023/10/25 01:52:49;;;;;;;1.77;1.67;;;19.20;58.20;;;;;;5056657;28;20188;-57
2023/10/25 01:55:16;;;;;;;1.83;1.52;;;19.20;58.20;;;;;;5039132;28;20199;-57
2023/10/25 01:57:46;;;;;;;2.28;1.60;;;19.20;58.20;;;;;;5039172;28;20623;-58
2023/10/25 02:00:15;;;;;;;1.58;1.48;;;19.20;58.20;;;;;;5038489;28;20296;-57
2023/10/25 02:02:43;;;;;;;1.60;1.50;;;19.20;58.20;;;;;;5038525;28;20224;-60
2023/10/25 02:05:10;;;;;;;1.70;1.60;;;19.20;58.20;;;;;;5056729;28;20253;-60
2023/10/25 02:07:39;;;;;;;1.75;1.60;;;19.10;58.10;;;;;;5038536;28;20197;-60
2023/10/25 02:10:07;;;;;;;1.60;1.50;;;19.20;58.20;;;;;;5038254;28;20269;-60
2023/10/25 02:12:35;;;;;;;1.80;1.70;;;19.20;58.20;;;;;;5056294;28;20293;-60
2023/10/25 02:15:04;;;;;;;1.60;1.50;;;19.10;58.20;;;;;;5038532;28;20286;-56
2023/10/25 02:17:31;;;;;;;1.75;1.50;;;19.10;58.30;;;;;;5038308;28;20200;-56
2023/10/25 02:19:58;;;;;;;1.85;1.70;;;19.10;58.30;;;;;;5038062;28;20683;-57
2023/10/25 02:22:25;;;;;;;2.00;1.80;;;19.10;58.30;;;;;;5038222;28;20400;-56
2023/10/25 02:24:53;;;;;;;1.92;1.77;;;19.10;58.30;;;;;;5038087;28;20644;-56
2023/10/25 02:27:20;;;;;;;2.08;1.70;;;19.10;58.80;;;;;;5038146;28;20718;-56
2023/10/25 02:29:47;;;;;;;1.70;1.48;;;19.10;58.30;;;;;;5037929;28;20238;-56
2023/10/25 02:32:16;;;;;;;2.03;1.73;;;19.10;58.30;;;;;;5055856;28;20195;-57
2023/10/25 02:34:42;;;;;;;2.15;1.50;;;19.00;58.30;;;;;;5055855;28;20184;-56
2023/10/25 02:37:10;;;;;;;1.50;1.40;;;19.10;58.30;;;;;;5037789;28;20227;-56
2023/10/25 02:39:37;;;;;;;1.50;1.40;;;19.00;58.80;;;;;;5037640;28;20632;-56
2023/10/25 02:42:05;;;;;;;1.65;1.55;;;19.00;58.30;;;;;;5055764;28;20191;-56
2023/10/25 02:44:32;;;;;;;2.70;1.60;;;19.00;58.30;;;;;;5037879;28;20313;-57
2023/10/25 02:46:59;;;;;;;1.50;1.40;;;19.00;58.20;;;;;;5037798;28;20195;-56
2023/10/25 02:49:28;;;;;;;1.80;1.70;;;19.00;58.20;;;;;;5055573;28;20250;-56
2023/10/25 02:51:55;;;;;;;1.77;1.60;;;19.00;58.30;;;;;;5037797;28;20192;-56
2023/10/25 02:54:22;;;;;;;1.67;1.50;;;19.00;58.30;;;;;;5037658;28;20205;-56
2023/10/25 02:56:49;;;;;;;1.77;1.67;;;19.00;58.30;;;;;;5037542;28;20199;-56
2023/10/25 02:59:16;;;;;;;1.50;1.40;;;19.00;58.30;;;;;;5055217;28;20218;-56
2023/10/25 03:01:43;;;;;;;1.60;1.50;;;19.00;58.20;;;;;;5055651;28;20547;-56
2023/10/25 03:04:10;;;;;;;2.25;1.60;;;19.00;58.20;;;;;;5037671;28;20257;-57
2023/10/25 03:06:40;;;;;;;1.60;1.50;;;19.00;58.30;;;;;;5037447;28;20265;-57
2023/10/25 03:09:07;;;;;;;1.95;1.55;;;19.00;58.10;;;;;;5037088;28;20676;-56
2023/10/25 03:11:34;;;;;;;1.60;1.50;;;18.90;58.20;;;;;;5037455;28;20188;-57
2023/10/25 03:14:01;;;;;;;2.13;1.50;;;18.90;58.30;;;;;;5055372;28;20238;-56
2023/10/25 03:16:28;;;;;;;1.85;1.35;;;18.90;58.30;;;;;;5037210;28;20200;-56
2023/10/25 03:18:55;;;;;;;1.70;1.60;;;18.90;58.30;;;;;;5037138;28;20219;-57
2023/10/25 03:21:23;;;;;;;1.70;1.60;;;18.90;58.20;;;;;;5037052;28;20310;-56
2023/10/25 03:23:51;;;;;;;1.58;1.48;;;18.90;58.20;;;;;;5037157;28;20204;-57
2023/10/25 03:26:18;;;;;;;1.50;1.40;;;18.90;58.20;;;;;;5036953;28;20222;-56
2023/10/25 03:28:45;;;;;;;1.60;1.50;;;18.90;58.10;;;;;;5037638;28;20223;-57
2023/10/25 03:31:12;;;;;;;1.70;1.60;;;18.90;58.00;;;;;;5054804;28;20679;-56
2023/10/25 03:33:40;;;;;;;1.50;1.40;;;18.90;58.00;;;;;;5054831;28;20198;-56
2023/10/25 03:36:07;;;;;;;1.25;1.15;;;18.90;58.00;;;;;;5054729;28;20188;-56
2023/10/25 03:38:35;;;;;;;2.35;1.33;;;19.00;58.10;;;;;;5036673;28;20698;-56
2023/10/25 03:41:04;;;;;;;1.52;1.42;;;19.00;58.10;;;;;;5036626;28;20222;-56
2023/10/25 03:43:32;;;;;;;1.30;1.30;;;19.00;58.00;;;;;;5036628;28;20207;-57
2023/10/25 03:46:03;;;;;;;1.63;1.52;;;19.00;58.00;;;;;;5036703;28;20188;-56
2023/10/25 03:48:30;;;;;;;1.40;1.30;;;19.00;57.80;;;;;;5036604;28;20215;-56
2023/10/25 03:50:57;;;;;;;1.27;1.23;;;19.00;57.70;;;;;;5054432;28;20184;-57
2023/10/25 03:53:25;;;;;;;1.55;1.40;;;19.00;57.70;;;;;;5036649;28;20200;-56
2023/10/25 03:55:56;;;;;;;1.50;1.40;;;19.10;57.70;;;;;;5036437;28;20195;-56
2023/10/25 03:58:25;;;;;;;1.40;1.30;;;19.00;58.20;;;;;;5036365;28;20640;-56
2023/10/25 04:00:59;;;;;;;1.60;1.50;;;19.10;57.60;;;;;;5054235;28;20582;-56
2023/10/25 04:03:26;;;;;;;2.22;1.40;;;19.00;57.50;;;;;;5035283;28;20233;-56
2023/10/25 04:05:53;;;;;;;1.83;1.40;;;19.10;57.50;;;;;;5036108;28;20210;-56
2023/10/25 04:08:20;;;;;;;1.42;1.33;;;19.00;57.40;;;;;;5041686;23;20270;-83
2023/10/25 04:10:51;;;;;;;1.27;1.17;;;19.10;57.40;;;;;;5004487;28;20222;-84
2023/10/25 04:13:19;;;;;;;1.50;1.40;;;19.10;57.40;;;;;;5017415;28;20197;-85
2023/10/25 04:15:56;;;;;;;1.35;1.30;;;19.00;57.40;;;;;;5017551;28;20645;-85
2023/10/25 04:18:23;;;;;;;1.58;1.30;;;19.00;57.40;;;;;;5017580;28;20701;-86
2023/10/25 04:20:50;;;;;;;1.88;1.40;;;19.10;57.50;;;;;;5018568;28;20690;-86
2023/10/25 04:23:19;;;;;;;1.40;1.30;;;19.00;57.50;;;;;;5004735;28;20228;-86
2023/10/25 04:25:46;;;;;;;1.30;1.20;;;19.00;57.60;;;;;;5005022;28;20268;-85
2023/10/25 04:28:13;;;;;;;1.60;1.40;;;19.00;57.50;;;;;;5021279;28;20219;-85
2023/10/25 04:30:40;;;;;;;1.40;1.30;;;19.00;57.60;;;;;;5021680;28;20216;-85
2023/10/25 04:33:09;;;;;;;1.50;1.40;;;18.90;57.40;;;;;;5023197;28;20251;-85
2023/10/25 04:35:36;;;;;;;2.55;1.30;;;19.00;57.60;;;;;;5021275;28;20270;-85
2023/10/25 04:38:03;;;;;;;1.42;1.33;;;19.00;57.60;;;;;;5019469;28;20655;-85
2023/10/25 04:40:31;;;;;;;1.30;1.20;;;19.00;57.60;;;;;;5017248;28;20290;-85
2023/10/25 04:42:58;;;;;;;2.65;1.50;;;19.00;57.60;;;;;;5017536;28;20207;-85
2023/10/25 04:45:25;;;;;;;1.42;1.33;;;19.00;57.50;;;;;;5016787;28;20204;-85
2023/10/25 04:47:53;;;;;;;1.42;1.30;;;19.00;57.50;;;;;;5018180;28;20196;-85
2023/10/25 04:50:22;;;;;;;1.40;1.30;;;19.00;57.50;;;;;;5017917;28;20278;-85
2023/10/25 04:52:49;;;;;;;1.70;1.35;;;19.00;57.40;;;;;;5016825;28;20207;-85
2023/10/25 04:55:17;;;;;;;1.40;1.30;;;19.00;57.30;;;;;;5017052;28;20211;-85
2023/10/25 04:57:44;;;;;;;1.42;1.33;;;19.00;57.30;;;;;;5017119;28;20227;-85
2023/10/25 05:00:12;;;;;;;1.42;1.33;;;19.10;57.50;;;;;;5017306;28;20220;-85
2023/10/25 05:02:39;;;;;;;1.42;1.33;;;19.00;57.30;;;;;;5000431;28;20199;-85
2023/10/25 05:05:08;;;;;;;1.13;1.08;;;19.00;57.40;;;;;;5016984;28;20626;-85
2023/10/25 05:07:37;;;;;;;1.30;1.20;;;19.00;57.30;;;;;;5016449;28;20210;-85
2023/10/25 05:10:06;;;;;;;1.20;1.20;;;19.00;57.20;;;;;;5016568;28;20212;-85
2023/10/25 05:12:38;;;;;;;1.55;1.30;;;19.00;57.40;;;;;;5000635;28;20202;-85
2023/10/25 05:15:07;;;;;;;1.40;1.30;;;19.00;57.30;;;;;;5016591;28;20204;-85
2023/10/25 05:17:35;;;;;;;1.40;1.30;;;19.00;57.30;;;;;;5016619;28;20200;-82
2023/10/25 05:20:04;;;;;;;1.23;1.20;;;19.00;57.30;;;;;;5017724;28;20258;-83
2023/10/25 05:22:34;;;;;;;1.25;1.15;;;19.00;57.40;;;;;;5017113;28;20191;-83
2023/10/25 05:25:03;;;;;;;1.40;1.30;;;19.00;57.40;;;;;;5017671;28;20204;-83
2023/10/25 05:27:31;;;;;;;1.40;1.30;;;19.00;57.40;;;;;;5016442;28;20196;-83
2023/10/25 05:30:03;;;;;;;1.20;1.20;;;19.00;57.30;;;;;;5016719;28;20318;-83
2023/10/25 05:32:31;;;;;;;1.38;1.27;;;19.00;57.20;;;;;;5018255;28;20199;-83
2023/10/25 05:34:58;;;;;;;1.10;1.10;;;19.00;57.30;;;;;;5017673;28;20359;-83
2023/10/25 05:37:26;;;;;;;1.30;1.20;;;19.00;57.30;;;;;;5017675;28;20253;-83
2023/10/25 05:39:53;;;;;;;1.23;1.20;;;19.00;57.80;;;;;;5017486;28;20270;-83
2023/10/25 05:42:23;;;;;;;1.52;1.42;;;19.00;57.20;;;;;;5017966;28;20255;-83
2023/10/25 05:44:53;;;;;;;1.30;1.20;;;19.00;57.20;;;;;;5000579;28;20298;-83
2023/10/25 05:47:21;;;;;;;1.40;1.30;;;19.00;57.20;;;;;;5016651;28;20212;-83
2023/10/25 05:49:50;;;;;;;1.30;1.20;;;19.00;57.20;;;;;;5017108;28;20220;-83
2023/10/25 05:52:17;;;;;;;1.38;1.27;;;19.00;57.20;;;;;;5016699;28;20246;-83
2023/10/25 05:54:45;;;;;;;1.10;1.10;;;18.90;57.20;;;;;;5016971;28;20571;-84
2023/10/25 05:57:15;;;;;;;1.40;1.30;;;19.00;57.30;;;;;;5016709;28;20196;-84
2023/10/25 05:59:44;;;;;;;1.35;1.25;;;19.00;57.30;;;;;;5016476;28;20307;-83
2023/10/25 06:02:14;;;;;;;1.40;1.30;;;19.00;57.10;;;;;;5017419;28;20219;-83
2023/10/25 06:04:42;;;;;;;1.25;1.10;;;18.90;57.00;;;;;;5016650;28;20196;-83
2023/10/25 06:07:10;;;;;;;1.23;1.10;;;18.90;56.90;;;;;;5016367;28;20200;-84
2023/10/25 06:09:38;;;;;;;1.10;1.10;;;19.00;57.10;;;;;;5017440;28;20224;-83
2023/10/25 06:12:06;;;;;;;1.27;1.17;;;18.90;57.00;;;;;;5017528;28;20709;-83
2023/10/25 06:14:33;;;;;;;1.40;1.30;;;18.90;57.00;;;;;;5017752;28;20258;-83
2023/10/25 06:17:02;;;;;;;1.13;1.13;;;19.00;57.10;;;;;;5016549;28;20204;-83
2023/10/25 06:19:29;;;;;;;1.10;1.10;;;18.90;57.00;;;;;;5016189;28;20224;-84
2023/10/25 06:21:56;;;;;;;1.23;1.23;;;18.90;57.00;;;;;;5016301;28;20226;-83
2023/10/25 06:24:24;;;;;;;1.20;1.10;;;18.90;56.90;;;;;;5016496;28;20546;-84
2023/10/25 06:26:51;;;;;;;1.13;1.02;;;18.90;56.90;;;;;;5019585;28;20211;-83
2023/10/25 06:29:18;;;;;;;1.40;1.30;;;18.90;56.90;;;;;;5020494;28;20298;-83
2023/10/25 06:31:50;;;;;;;1.10;1.00;;;18.90;56.90;;;;;;5004104;28;20193;-84
2023/10/25 06:34:20;;;;;;;1.30;1.20;;;19.00;57.00;;;;;;5021005;28;20647;-83
2023/10/25 06:36:47;;;;;;;1.00;1.00;;;19.00;56.90;;;;;;5020932;28;20203;-84
2023/10/25 06:39:15;;;;;;;1.52;1.27;;;19.00;56.90;;;;;;5021191;28;20207;-83
2023/10/25 06:41:43;;;;;;;1.23;1.23;;;19.10;56.90;;;;;;5004412;28;20212;-84
2023/10/25 06:44:10;;;;;;;1.25;1.20;;;19.10;56.70;;;;;;5020200;28;20317;-83
2023/10/25 06:46:39;;;;;;;1.05;1.05;;;19.00;56.80;;;;;;5019827;28;20192;-83
2023/10/25 06:49:06;;;;;;;1.20;1.20;;;19.10;56.90;;;;;;5003577;28;20200;-83
2023/10/25 06:51:36;;;;;;;2.75;1.50;;;19.10;56.80;;;;;;5020134;28;20192;-83
2023/10/25 06:54:03;;;;;;;2.10;1.60;;;19.10;56.70;;;;;;5019721;28;20203;-83
2023/10/25 06:56:31;;;;;;;1.65;1.55;;;19.10;56.70;;;;;;5019982;28;20200;-83
2023/10/25 06:58:59;;;;;;;1.40;1.30;;;19.10;56.70;;;;;;5003282;28;20323;-83
2023/10/25 07:01:27;;;;;;;1.55;1.45;;;19.10;56.70;;;;;;5019690;28;20215;-83
2023/10/25 07:03:56;;;;;;;1.55;1.45;;;19.10;56.70;;;;;;5019974;28;20192;-84
2023/10/25 07:06:24;;;;;;;1.42;1.30;;;19.10;56.70;;;;;;5019651;28;20203;-83
2023/10/25 07:09:14;;;;;;;1.20;1.10;;;19.10;56.70;;;;;;5037015;28;20326;-83
2023/10/25 07:11:41;;;;;;;1.58;1.48;;;19.10;56.60;;;;;;5019589;28;20206;-83
2023/10/25 07:14:08;;;;;;;1.75;1.30;;;19.20;56.70;;;;;;5019309;28;20204;-83
2023/10/25 07:16:35;;;;;;;1.17;1.17;;;19.20;56.50;;;;;;5019349;28;20196;-83
2023/10/25 07:19:02;;;;;;;1.40;1.30;;;19.20;56.40;;;;;;5019348;28;20200;-83
2023/10/25 07:21:30;;;;;;;1.40;1.30;;;19.20;56.20;;;;;;5019713;28;20693;-83
2023/10/25 07:23:57;;;;;;;1.50;1.40;;;19.30;55.90;;;;;;5032048;28;20260;-83
2023/10/25 07:26:25;;;;;;;1.30;1.20;;;19.40;55.80;;;;;;5039880;28;20207;-83
2023/10/25 07:28:53;;;;;;;1.50;1.40;;;19.40;55.70;;;;;;5038972;28;20188;-83
2023/10/25 07:31:20;;;;;;;2.10;1.90;;;19.50;55.70;;;;;;5024750;28;20298;-83
2023/10/25 07:33:47;;;;;;;1.42;1.33;;;19.50;55.50;;;;;;5003292;28;20196;-83
2023/10/25 07:36:14;;;;;;;1.67;1.58;;;19.60;55.50;;;;;;5020378;28;20204;-83
2023/10/25 07:38:42;;;;;;;2.05;1.45;;;19.60;55.50;;;;;;5003196;28;20254;-83
2023/10/25 07:41:09;;;;;;;1.60;1.50;;;19.60;55.30;;;;;;5002908;28;20712;-83
2023/10/25 07:43:38;;;;;;;1.85;1.48;;;19.60;55.30;;;;;;5024700;28;20272;-84
2023/10/25 07:46:05;;;;;;;1.45;1.35;;;19.70;55.20;;;;;;5026415;28;20208;-83
2023/10/25 07:48:33;;;;;;;1.65;1.55;;;19.70;55.10;;;;;;4994196;28;20281;-84
2023/10/25 07:51:04;;;;;;;1.50;1.40;;;19.80;55.00;;;;;;5024726;28;20216;-83
2023/10/25 07:53:31;;;;;;;1.35;1.25;;;19.90;54.80;;;;;;5019925;28;20254;-83
2023/10/25 07:56:02;;;;;;;1.30;1.20;;;20.00;54.70;;;;;;5019148;28;20224;-83
2023/10/25 07:58:30;;;;;;;1.50;1.40;;;20.30;54.50;;;;;;5018416;28;20208;-83
2023/10/25 08:00:58;;;;;;;1.90;1.80;;;20.50;54.20;;;;;;5018765;28;20227;-83
2023/10/25 08:03:28;;;;;;;1.40;1.30;;;20.60;53.60;;;;;;5019253;28;20206;-83
2023/10/25 08:05:56;;;;;;;1.55;1.45;;;20.80;53.30;;;;;;5003837;28;20635;-82
2023/10/25 08:08:23;;;;;;;1.55;1.45;;;20.80;53.00;;;;;;5018566;28;20226;-83
2023/10/25 08:10:59;;;;;;;1.50;1.40;;;20.80;53.00;;;;;;5018644;28;20298;-83
2023/10/25 08:13:25;;;;;;;1.48;1.38;;;20.80;53.00;;;;;;5018406;28;20279;-83
2023/10/25 08:15:58;;;;;;;1.33;1.23;;;20.80;53.10;;;;;;5018141;28;20197;-84
2023/10/25 08:18:27;;;;;;;1.85;1.10;;;20.70;53.00;;;;;;5017897;28;20192;-84
2023/10/25 08:20:54;;;;;;;1.42;1.33;;;20.80;53.20;;;;;;5017490;28;20270;-84
2023/10/25 08:23:21;;;;;;;1.52;1.42;;;20.80;53.20;;;;;;5017788;28;20250;-84
2023/10/25 08:25:47;;;;;;;2.50;1.58;;;20.80;53.20;;;;;;5019538;28;20562;-82
2023/10/25 08:28:15;;;;;;;1.50;1.40;;;20.80;53.00;;;;;;5020444;28;20259;-83
2023/10/25 08:30:42;;;;;;;1.10;1.10;;;20.80;52.90;;;;;;5021665;28;20265;-82
2023/10/25 08:33:11;;;;;;;1.60;1.50;;;20.90;52.90;;;;;;5022955;28;20196;-82
2023/10/25 08:35:38;;;;;;;1.50;1.40;;;20.80;52.80;;;;;;5023415;28;20200;-83
2023/10/25 08:38:05;;;;;;;1.60;1.50;;;20.80;52.80;;;;;;5023414;28;20733;-83
2023/10/25 08:40:33;;;;;;;1.40;1.30;;;20.80;53.00;;;;;;5019733;28;20594;-85
2023/10/25 08:43:00;;;;;;;1.48;1.35;;;20.70;53.00;;;;;;5017403;28;20228;-82
2023/10/25 08:45:28;;;;;;;1.58;1.48;;;20.70;53.20;;;;;;5017654;28;20578;-82
2023/10/25 08:47:55;;;;;;;1.60;1.50;;;20.70;53.20;;;;;;5018584;28;20647;-83
2023/10/25 08:50:24;;;;;;;1.60;1.50;;;20.70;53.30;;;;;;5017858;28;20223;-82
2023/10/25 08:52:51;;;;;;;2.20;1.48;;;20.70;53.30;;;;;;5020230;28;20184;-82
2023/10/25 08:55:18;;;;;;;1.40;1.30;;;20.70;53.50;;;;;;5020054;28;20200;-82
2023/10/25 08:57:45;;;;;;;1.33;1.23;;;20.70;53.50;;;;;;5003349;28;20258;-84
2023/10/25 09:00:13;;;;;;;1.65;1.55;;;20.70;53.70;;;;;;5018455;28;20305;-82
2023/10/25 09:02:41;;;;;;;1.77;1.67;;;20.70;53.80;;;;;;5018367;28;20243;-84
2023/10/25 09:05:08;;;;;;;1.70;1.60;;;20.70;54.00;;;;;;5002520;28;20197;-83
2023/10/25 09:07:37;;;;;;;1.40;1.30;;;20.70;54.10;;;;;;5018034;28;20235;-83
2023/10/25 09:10:10;;;;;;;1.65;1.55;;;20.70;54.00;;;;;;5017519;28;20220;-83
2023/10/25 09:12:37;;;;;;;1.63;1.52;;;20.70;54.20;;;;;;5017598;28;20662;-83
2023/10/25 09:15:05;;;;;;;2.63;1.60;;;20.70;54.30;;;;;;5001990;28;20211;-83
2023/10/25 09:17:32;;;;;;;1.70;1.60;;;20.70;54.70;;;;;;5018591;28;20659;-83
2023/10/25 09:20:00;;;;;;;1.40;1.30;;;20.60;54.50;;;;;;5018105;28;20306;-83
2023/10/25 09:22:28;;;;;;;2.22;1.52;;;20.60;54.70;;;;;;5018344;28;20274;-83
2023/10/25 09:24:58;;;;;;;2.10;1.50;;;20.70;54.90;;;;;;5019231;28;20196;-83
2023/10/25 09:27:25;;;;;;;4.80;1.48;;;20.70;54.80;;;;;;5018472;28;20204;-83
2023/10/25 09:29:52;;;;;;;2.75;1.13;;;20.60;54.90;;;;;;5018789;28;20562;-83
2023/10/25 09:32:20;;;;;;;1.90;1.60;;;20.70;55.00;;;;;;5017122;28;20192;-83
2023/10/25 09:34:47;;;;;;;1.70;1.23;;;20.70;55.70;;;;;;5016669;28;20203;-83
2023/10/25 09:37:14;;;;;;;1.40;1.30;;;20.60;55.00;;;;;;5017014;28;20287;-83
2023/10/25 09:39:41;;;;;;;1.70;1.50;;;20.60;55.10;;;;;;5000844;28;20224;-83
2023/10/25 09:42:11;;;;;;;1.35;1.23;;;20.60;55.20;;;;;;5000830;28;20293;-83
2023/10/25 09:44:45;;;;;;;1.13;1.10;;;20.60;55.10;;;;;;5016646;28;20200;-83
2023/10/25 09:47:12;;;;;;;2.00;1.50;;;20.60;55.10;;;;;;5017931;28;20576;-83
2023/10/25 09:49:42;;;;;;;2.45;1.38;;;20.70;55.20;;;;;;5017474;28;20610;-83
2023/10/25 09:52:13;;;;;;;1.50;1.40;;;20.60;55.20;;;;;;5017583;28;20197;-83
2023/10/25 09:54:46;;;;;;;1.35;1.20;;;20.70;55.10;;;;;;5017070;28;20275;-83
2023/10/25 09:57:15;;;;;;;1.40;1.30;;;20.60;55.00;;;;;;5017167;28;20616;-83
2023/10/25 09:59:42;;;;;;;1.90;1.30;;;20.60;55.10;;;;;;5018571;28;20258;-84
2023/10/25 10:02:09;;;;;;;2.15;1.52;;;20.60;55.00;;;;;;5019986;28;20227;-83
2023/10/25 10:04:42;;;;;;;2.05;1.40;;;20.70;55.10;;;;;;5020903;28;20202;-83
2023/10/25 10:09:44;;;;;;;1.50;1.00;;;20.70;54.70;;;;;;5015879;28;20221;-79
2023/10/25 10:12:11;;;;;;;1.30;1.20;;;20.70;54.70;;;;;;5017829;28;20247;-79
2023/10/25 10:14:39;;;;;;;1.20;1.10;;;20.70;54.60;;;;;;5017519;28;20193;-83
2023/10/25 10:17:09;;;;;;;1.50;1.40;;;20.70;54.50;;;;;;5018098;28;20269;-80
2023/10/25 10:19:40;;;;;;;2.10;1.13;;;20.80;54.60;;;;;;5019416;28;20208;-80
2023/10/25 10:22:08;;;;;;;1.35;1.25;;;20.80;54.50;;;;;;5019737;28;20227;-80
2023/10/25 10:24:43;;;;;;;1.33;1.23;;;20.70;54.30;;;;;;5017408;28;20211;-80
2023/10/25 10:27:10;;;;;;;1.40;1.30;;;20.70;54.30;;;;;;5017369;28;20204;-81
2023/10/25 10:29:39;;;;;;;1.00;1.00;;;20.80;54.30;;;;;;5016841;28;20374;-81
2023/10/25 10:32:07;;;;;;;1.52;1.33;;;20.80;54.30;;;;;;5017204;28;20193;-81
2023/10/25 10:34:39;;;;;;;1.73;1.30;;;20.80;54.40;;;;;;5001295;28;20595;-79
2023/10/25 10:37:06;;;;;;;1.50;1.40;;;20.80;54.60;;;;;;5016642;28;20208;-79
2023/10/25 10:39:33;;;;;;;3.05;1.38;;;20.90;54.70;;;;;;5016988;28;20244;-80
2023/10/25 10:42:01;;;;;;;1.30;1.20;;;20.80;54.60;;;;;;5017840;28;20221;-82
2023/10/25 10:44:29;;;;;;;1.58;1.40;;;20.90;54.50;;;;;;5017186;28;20287;-79
2023/10/25 10:46:59;;;;;;;2.80;1.38;;;20.90;54.40;;;;;;5017974;28;20212;-79
2023/10/25 10:49:29;;;;;;;1.73;1.30;;;20.90;54.30;;;;;;5016404;28;20221;-78
2023/10/25 10:51:57;;;;;;;1.25;1.15;;;20.90;54.20;;;;;;5017742;28;20258;-80
2023/10/25 10:54:24;;;;;;;1.48;1.30;;;21.00;54.30;;;;;;5018722;28;20197;-79
2023/10/25 10:56:51;;;;;;;1.27;1.02;;;21.00;54.20;;;;;;5019140;28;20200;-79
2023/10/25 10:59:18;;;;;;;1.40;1.30;;;21.10;54.20;;;;;;5019203;28;20723;-80
2023/10/25 11:01:45;;;;;;;1.55;1.30;;;21.10;54.00;;;;;;5018524;28;20209;-79
2023/10/25 11:04:13;;;;;;;1.25;1.15;;;21.10;54.00;;;;;;5018319;28;20200;-80
2023/10/25 11:06:40;;;;;;;1.55;1.33;;;21.10;53.90;;;;;;5016874;28;20208;-80
2023/10/25 11:09:08;;;;;;;1.30;1.20;;;21.20;54.00;;;;;;5015676;28;20708;-82
2023/10/25 11:11:36;;;;;;;1.20;1.10;;;21.20;53.90;;;;;;5015486;28;20201;-81
2023/10/25 11:14:03;;;;;;;1.50;1.30;;;21.20;53.90;;;;;;5016064;28;20656;-80
2023/10/25 11:16:30;;;;;;;1.25;1.08;;;21.20;53.90;;;;;;5015085;28;20239;-77
2023/10/25 11:19:07;;;;;;;1.30;1.20;;;21.20;53.90;;;;;;5014852;28;20223;-80
2023/10/25 11:21:35;;;;;;;1.40;1.30;;;21.20;53.80;;;;;;5015398;28;20243;-79
2023/10/25 11:24:06;;;;;;;1.45;1.10;;;21.20;53.80;;;;;;5015056;28;20228;-79
2023/10/25 11:26:40;;;;;;;1.00;0.90;;;21.20;53.80;;;;;;5015185;28;20307;-78
2023/10/25 11:29:07;;;;;;;1.20;1.10;;;21.20;53.70;;;;;;5014992;28;20300;-79
2023/10/25 11:31:35;;;;;;;1.20;1.10;;;21.30;53.60;;;;;;5014864;28;20215;-80
2023/10/25 11:34:02;;;;;;;1.10;1.00;;;21.20;53.60;;;;;;4998567;28;20192;-78
2023/10/25 11:36:30;;;;;;;1.33;0.90;;;21.30;53.60;;;;;;4998949;28;20207;-80
2023/10/25 11:39:08;;;;;;;0.90;0.90;;;21.30;53.50;;;;;;5014779;28;20569;-78
2023/10/25 11:41:35;;;;;;;0.90;0.88;;;21.40;53.60;;;;;;5014369;28;20201;-78
2023/10/25 11:44:02;;;;;;;1.17;1.08;;;21.30;53.40;;;;;;5014749;28;20216;-78
2023/10/25 11:46:34;;;;;;;1.02;1.02;;;21.40;53.40;;;;;;5014381;28;20542;-77
2023/10/25 11:49:01;;;;;;;1.40;1.10;;;21.50;53.50;;;;;;5014847;28;20219;-78
2023/10/25 11:51:28;;;;;;;1.23;0.93;;;21.50;53.40;;;;;;5014275;28;20229;-79
2023/10/25 11:53:55;;;;;;;1.10;1.00;;;21.50;53.50;;;;;;5014684;28;20618;-79
2023/10/25 11:56:24;;;;;;;1.20;1.10;;;21.50;53.40;;;;;;5014819;28;20592;-79
2023/10/25 11:58:51;;;;;;;1.02;1.00;;;21.50;53.40;;;;;;5014306;28;20577;-79
2023/10/25 12:01:18;;;;;;;3.55;1.23;;;21.60;53.50;;;;;;5014282;28;20707;-78
2023/10/25 12:03:45;;;;;;;1.20;1.05;;;21.70;54.50;;;;;;5014272;28;20217;-79
2023/10/25 12:06:12;;;;;;;1.80;0.90;;;21.60;53.50;;;;;;5015097;28;20201;-78
2023/10/25 12:08:40;;;;;;;3.58;1.30;;;21.70;53.50;;;;;;5014751;28;20660;-78
2023/10/25 12:11:10;;;;;;;4.35;1.30;;;21.70;53.70;;;;;;5016364;28;20224;-78
2023/10/25 12:13:38;;;;;;;2.13;1.15;;;21.80;53.60;;;;;;5017327;28;20318;-80
2023/10/25 12:16:07;;;;;;;3.25;1.20;;;21.80;53.70;;;;;;4998728;28;20316;-83
2023/10/25 12:18:35;;;;;;;3.10;1.17;;;21.80;53.60;;;;;;5014815;28;20549;-80
2023/10/25 12:21:03;;;;;;;2.70;1.20;;;21.70;53.50;;;;;;5014020;28;20216;-83
2023/10/25 12:23:30;;;;;;;2.55;1.05;;;21.70;53.50;;;;;;5013650;28;20315;-80
2023/10/25 12:25:57;;;;;;;3.05;1.30;;;21.60;53.50;;;;;;5015403;28;20200;-82
2023/10/25 12:28:24;;;;;;;3.13;1.30;;;21.60;53.80;;;;;;5014113;28;20201;-79
2023/10/25 12:30:52;;;;;;;1.70;1.20;;;21.60;53.70;;;;;;5014728;28;20587;-79
2023/10/25 12:33:19;;;;;;;2.53;1.20;;;21.50;53.60;;;;;;5013823;28;20193;-79
2023/10/25 12:35:46;;;;;;;2.15;1.10;;;21.50;53.80;;;;;;5014218;28;20200;-80
2023/10/25 12:38:13;;;;;;;1.30;1.00;;;21.50;54.00;;;;;;5013889;28;20207;-81
2023/10/25 12:40:40;;;;;;;2.33;1.30;;;21.50;54.30;;;;;;5013956;28;20606;-84
2023/10/25 12:43:07;;;;;;;1.73;1.20;;;21.50;54.30;;;;;;5014012;28;20237;-78
2023/10/25 12:45:34;;;;;;;1.27;1.17;;;21.50;54.20;;;;;;5015196;28;20200;-78
2023/10/25 12:48:03;;;;;;;2.38;1.20;;;21.50;54.10;;;;;;5014165;28;20200;-78
2023/10/25 12:50:30;;;;;;;1.13;1.02;;;21.50;54.10;;;;;;4997965;28;20652;-78
2023/10/25 12:52:57;;;;;;;1.50;1.20;;;21.50;54.00;;;;;;5014752;28;20624;-79
2023/10/25 12:55:24;;;;;;;2.00;1.33;;;21.50;53.90;;;;;;5013892;28;20270;-78